Ceres, West Virginia
Current Conditions -  °F | °C
As of 1:21 AM on Tuesday 21 Oct 2014 (Local Time) from KBLF Reporting Station
Overcast Overcast  
Wind Chill: 52°   Ceiling: 2900
Heat Index: 52°   Visibility: 10mi
Dew Point: 44°   Wind: 7mph
Humidity: 74%   Direction: 260°W
Pressure: 29.98"   Gusts: NA
Location:  37.2994°N, 81.226°W
Report Text: KBLF 210521Z AUTO 26006KT 10SM BKN029 BKN040 OVC055 11/07 A2998 RMK AO2 T01110067
Loading
Personal Weather Stations






























Interactive Weather Map
Tropical Storm Tracking
New forecast layout! Learn more

10-Day Weather Forecast

Advertisements
Track Severe Weather on mobile